Time;durP1;ratioP1;P1;durP2;ratioP2;P2;SDS_P1;SDS_P2;PMS_P1;PMS_P2;Temp;Humidity;BMP_temperature;BMP_pressure;BME280_temperature;BME280_humidity;BME280_pressure;Samples;Min_cycle;Max_cycle;Signal;HPM_P1;HPM_P2
2021/12/17 00:01:15;;;;;;;0.70;0.70;;;;;;;22.70;31.65;98572.16;5026869;28;20017;-30
2021/12/17 00:03:49;;;;;;;0.70;0.70;;;;;;;22.70;31.80;98566.91;5026657;28;22974;-35
2021/12/17 00:08:52;;;;;;;0.90;0.80;;;;;;;22.70;31.75;98572.16;5028225;28;20553;-36
2021/12/17 00:11:18;;;;;;;0.93;0.80;;;;;;;22.69;31.63;98570.41;5029083;28;20032;-33
2021/12/17 00:13:45;;;;;;;1.05;0.90;;;;;;;22.70;31.50;98571.31;5028413;28;20029;-32
2021/12/17 00:16:18;;;;;;;1.17;0.82;;;;;;;22.69;31.60;98570.41;5028586;28;20079;-30
2021/12/17 00:19:02;;;;;;;0.95;0.85;;;;;;;22.70;31.86;98571.31;5027390;28;20068;-31
2021/12/17 00:48:47;;;;;;;0.63;0.63;;;;;;;22.65;31.75;98560.88;5005251;28;20041;-30
2021/12/17 00:54:01;;;;;;;0.93;0.75;;;;;;;22.67;31.61;98566.97;5023784;28;20365;-34
2021/12/17 00:56:27;;;;;;;0.82;0.80;;;;;;;22.67;31.70;98561.75;5024249;28;20124;-36
2021/12/17 00:58:52;;;;;;;0.70;0.70;;;;;;;22.68;31.89;98559.97;5027372;28;20029;-34
2021/12/17 01:01:18;;;;;;;1.13;0.73;;;;;;;22.67;31.69;98553.91;5026204;28;20100;-28
2021/12/17 01:03:43;;;;;;;0.82;0.82;;;;;;;22.67;31.71;98559.13;5027170;28;20037;-32
2021/12/17 01:06:09;;;;;;;0.82;0.82;;;;;;;22.68;31.69;98553.03;5024911;28;20033;-35
2021/12/17 01:08:34;;;;;;;0.93;0.77;;;;;;;22.68;31.65;98558.25;5009280;28;20083;-33
2021/12/17 01:11:00;;;;;;;0.70;0.70;;;;;;;22.67;31.65;98556.53;5026702;28;20026;-32
2021/12/17 01:13:25;;;;;;;0.63;0.60;;;;;;;22.68;31.70;98555.63;5027552;28;20103;-31
2021/12/17 01:15:51;;;;;;;0.98;0.80;;;;;;;22.68;31.79;98553.03;5027515;28;20037;-30
2021/12/17 01:18:19;;;;;;;1.10;0.70;;;;;;;22.68;31.77;98555.63;5027657;28;20639;-31
2021/12/17 01:21:05;;;;;;;;;;;;;;;;;;;;;
2021/12/17 01:42:41;;;;;;;1.08;0.88;;;;;;;22.67;31.86;98525.16;5032813;28;20121;-33
2021/12/17 01:45:07;;;;;;;0.70;0.70;;;;;;;22.66;31.62;98528.66;5029821;28;20037;-33
2021/12/17 01:47:32;;;;;;;0.60;0.60;;;;;;;22.66;31.65;98523.44;5029785;28;20122;-34
2021/12/17 02:00:55;;;;;;;0.90;0.85;;;;;;;22.66;31.77;98549.56;5026314;28;20513;-34
2021/12/17 02:03:20;;;;;;;0.68;0.60;;;;;;;22.65;31.80;98547.81;5031299;28;20028;-34
2021/12/17 02:05:46;;;;;;;0.70;0.70;;;;;;;22.65;31.64;98545.22;5029102;28;20026;-32
2021/12/17 02:08:11;;;;;;;0.60;0.60;;;;;;;22.66;31.78;98544.34;5025885;28;20083;-35
2021/12/17 02:11:23;;;;;;;0.80;0.70;;;;;;;22.66;31.68;98541.75;5028395;28;20111;-33
2021/12/17 02:32:35;;;;;;;0.60;0.60;;;;;;;22.64;31.73;98529.53;5027184;28;20037;-35
2021/12/17 02:37:31;;;;;;;0.90;0.60;;;;;;;22.64;31.80;98511.25;5028970;28;20120;-32
2021/12/17 02:42:30;;;;;;;0.77;0.77;;;;;;;22.64;31.68;98506.03;5031079;28;20036;-32
2021/12/17 02:45:32;;;;;;;0.52;0.52;;;;;;;22.64;31.73;98500.81;5027932;28;20025;-35
2021/12/17 02:48:09;;;;;;;1.00;0.90;;;;;;;22.65;31.58;98500.78;5029146;28;20025;-32
2021/12/17 02:50:40;;;;;;;0.60;0.60;;;;;;;22.64;31.83;98499.06;5026192;28;20025;-31
2021/12/17 02:53:07;;;;;;;0.77;0.77;;;;;;;22.64;31.74;98486.00;5028451;28;20159;-29
2021/12/17 02:55:34;;;;;;;0.80;0.70;;;;;;;22.64;31.79;98487.72;5027716;28;20025;-31
2021/12/17 02:58:00;;;;;;;0.70;0.70;;;;;;;22.62;31.79;98482.56;5029245;28;20029;-32
2021/12/17 03:00:25;;;;;;;0.63;0.55;;;;;;;22.64;31.70;98479.91;5009061;28;20075;-33
2021/12/17 03:02:50;;;;;;;0.95;0.80;;;;;;;22.64;31.74;98478.16;5027700;28;20033;-30
2021/12/17 03:05:16;;;;;;;0.60;0.60;;;;;;;22.64;31.59;98462.47;5005173;28;20033;-34
2021/12/17 03:07:44;;;;;;;0.68;0.68;;;;;;;22.64;31.73;98470.31;5028973;28;20040;-29
2021/12/17 03:10:12;;;;;;;0.90;0.80;;;;;;;22.65;31.69;98469.44;5009981;28;20487;-35
2021/12/17 03:12:51;;;;;;;0.70;0.70;;;;;;;22.65;31.60;98471.19;5026963;28;20551;-30
2021/12/17 03:26:06;;;;;;;0.70;0.60;;;;;;;22.64;31.54;98477.28;5029226;28;20036;-36
2021/12/17 03:28:32;;;;;;;0.60;0.60;;;;;;;22.64;31.79;98477.28;5026970;28;20576;-31
2021/12/17 03:30:57;;;;;;;0.57;0.52;;;;;;;22.64;31.76;98483.38;5024736;28;20029;-35
2021/12/17 03:33:23;;;;;;;1.05;0.70;;;;;;;22.64;31.47;98480.78;5028019;28;20080;-33
2021/12/17 03:35:49;;;;;;;0.60;0.60;;;;;;;22.64;31.66;98478.16;5026001;28;20539;-33
2021/12/17 03:38:15;;;;;;;0.90;0.70;;;;;;;22.63;31.80;98481.66;5026918;28;20573;-33
2021/12/17 03:40:42;;;;;;;0.60;0.60;;;;;;;22.56;31.79;98464.31;5024673;28;20025;-32
2021/12/17 03:43:12;;;;;;;0.60;0.57;;;;;;;22.63;31.62;98479.06;5029462;28;20039;-30
2021/12/17 03:45:39;;;;;;;0.50;0.50;;;;;;;22.63;31.57;98476.44;5027966;28;20025;-34
2021/12/17 03:48:04;;;;;;;0.80;0.70;;;;;;;22.64;31.58;98482.50;5025208;28;20033;-32
2021/12/17 03:50:33;;;;;;;0.50;0.50;;;;;;;22.64;31.61;98488.63;5026671;28;20033;-36
2021/12/17 03:52:59;;;;;;;1.15;0.63;;;;;;;22.64;31.72;98488.63;5028754;28;20446;-33
2021/12/17 03:55:24;;;;;;;0.70;0.70;;;;;;;22.64;31.50;98467.72;5026504;28;20024;-31
2021/12/17 03:57:50;;;;;;;0.63;0.63;;;;;;;22.64;31.57;98479.91;5027349;28;20029;-34
2021/12/17 04:00:15;;;;;;;0.68;0.68;;;;;;;22.64;31.82;98482.50;5024084;28;20487;-31
2021/12/17 04:02:40;;;;;;;0.60;0.50;;;;;;;22.64;31.61;98483.38;5026356;28;20025;-35
2021/12/17 04:05:06;;;;;;;1.17;0.65;;;;;;;22.63;31.73;98484.28;5027922;28;20025;-34
2021/12/17 04:07:31;;;;;;;0.80;0.80;;;;;;;22.63;31.58;98471.22;5027100;28;20043;-32
2021/12/17 04:09:57;;;;;;;1.17;0.68;;;;;;;22.65;31.60;98485.09;5027701;28;20623;-33
2021/12/17 04:12:35;;;;;;;0.75;0.63;;;;;;;22.64;31.55;98482.50;5025522;28;20033;-34
2021/12/17 04:15:01;;;;;;;0.85;0.70;;;;;;;22.58;31.67;98478.25;5029178;28;20452;-36
2021/12/17 04:17:26;;;;;;;1.48;1.00;;;;;;;22.64;31.52;98483.38;5024773;28;20061;-34
2021/12/17 04:19:52;;;;;;;0.70;0.70;;;;;;;22.64;31.52;98486.00;5035095;28;20458;-35
2021/12/17 04:22:17;;;;;;;0.90;0.80;;;;;;;22.64;31.67;98486.00;5026931;28;20025;-35
2021/12/17 04:24:43;;;;;;;0.60;0.60;;;;;;;22.63;31.75;98484.28;5026938;28;20510;-32
2021/12/17 04:27:08;;;;;;;1.00;0.90;;;;;;;22.64;31.50;98480.78;5029075;28;20082;-33
2021/12/17 04:29:40;;;;;;;0.77;0.77;;;;;;;22.63;31.67;98476.44;5024978;28;20469;-33
2021/12/17 04:32:06;;;;;;;0.85;0.85;;;;;;;22.63;31.70;98471.22;5025186;28;20032;-26
2021/12/17 04:34:31;;;;;;;1.42;0.70;;;;;;;22.64;31.57;98482.50;5029259;28;20594;-30
2021/12/17 04:36:57;;;;;;;0.82;0.63;;;;;;;22.63;31.70;98479.06;5024174;28;20025;-32
2021/12/17 04:39:24;;;;;;;1.88;0.90;;;;;;;22.63;31.35;98481.66;5026441;28;20473;-38
2021/12/17 04:41:54;;;;;;;0.60;0.60;;;;;;;22.63;31.46;98481.66;5028554;28;20029;-32
2021/12/17 04:44:29;;;;;;;0.67;0.60;;;;;;;22.63;31.57;98476.44;5027440;28;20407;-26
2021/12/17 04:57:13;;;;;;;0.70;0.70;;;;;;;22.63;31.49;98486.88;5027813;28;20025;-37
2021/12/17 04:57:56;;;;;;;0.73;0.73;;;;;;;22.63;31.71;98486.00;5028251;28;20044;-30
2021/12/17 05:00:25;;;;;;;0.63;0.60;;;;;;;22.61;31.40;98483.41;5028773;28;20108;-29
2021/12/17 05:02:53;;;;;;;0.55;0.52;;;;;;;22.62;31.46;98469.50;5031919;28;20036;-34
2021/12/17 05:05:22;;;;;;;1.25;0.82;;;;;;;22.61;31.47;98457.28;5030513;28;20090;-32
2021/12/17 05:07:53;;;;;;;0.73;0.63;;;;;;;22.61;31.58;98459.91;5030116;28;20025;-36
2021/12/17 05:20:51;;;;;;;0.88;0.68;;;;;;;22.61;31.67;98465.13;5027784;28;20033;-38
2021/12/17 05:23:19;;;;;;;0.80;0.60;;;;;;;22.61;31.58;98452.06;5035607;28;20090;-31
2021/12/17 05:25:45;;;;;;;0.82;0.80;;;;;;;22.61;31.57;98459.91;5030242;28;20029;-35
2021/12/17 05:28:10;;;;;;;0.50;0.50;;;;;;;22.61;31.59;98461.66;5029606;28;20694;-30
2021/12/17 05:30:36;;;;;;;0.50;0.50;;;;;;;22.60;31.65;98460.78;5027631;28;20032;-30
2021/12/17 05:33:02;;;;;;;0.57;0.40;;;;;;;22.60;31.53;98455.56;5028682;28;20264;-34
2021/12/17 05:35:27;;;;;;;0.60;0.60;;;;;;;22.59;31.34;98469.53;5031345;28;20419;-31
2021/12/17 05:37:54;;;;;;;0.73;0.70;;;;;;;22.61;31.43;98461.66;5037500;28;20426;-32
2021/12/17 05:40:19;;;;;;;0.50;0.45;;;;;;;22.60;31.67;98460.78;5030730;28;20017;-33
2021/12/17 05:42:47;;;;;;;0.70;0.70;;;;;;;22.61;31.60;98451.22;5030401;28;20028;-32
2021/12/17 05:45:33;;;;;;;0.73;0.73;;;;;;;22.60;31.64;98455.56;5029910;28;20038;-31
2021/12/17 05:48:03;;;;;;;0.63;0.55;;;;;;;22.61;31.55;98472.97;5031163;28;20472;-31
2021/12/17 05:50:29;;;;;;;0.52;0.45;;;;;;;22.60;31.59;98460.78;5010835;28;20077;-36
2021/12/17 05:52:54;;;;;;;0.88;0.60;;;;;;;22.60;31.37;98467.78;5027740;28;20403;-32
2021/12/17 05:55:20;;;;;;;0.45;0.45;;;;;;;22.60;31.42;98455.56;5027040;28;20029;-31
2021/12/17 05:57:45;;;;;;;0.60;0.60;;;;;;;22.61;31.63;98459.06;5025730;28;20029;-32
2021/12/17 06:00:11;;;;;;;0.60;0.60;;;;;;;22.60;31.33;98447.72;5030562;28;20033;-33
2021/12/17 06:02:37;;;;;;;0.80;0.50;;;;;;;22.60;31.62;98445.13;5033775;28;20049;-32
2021/12/17 06:05:02;;;;;;;0.70;0.60;;;;;;;22.61;31.40;98456.44;5030642;28;20116;-30
2021/12/17 06:07:28;;;;;;;0.60;0.60;;;;;;;22.61;31.40;98451.22;5029428;28;20025;-33
2021/12/17 06:09:54;;;;;;;0.60;0.60;;;;;;;22.61;31.47;98451.22;5030297;28;20107;-34
2021/12/17 06:12:19;;;;;;;0.80;0.50;;;;;;;22.60;31.51;98455.56;5028233;28;20884;-33
2021/12/17 06:14:45;;;;;;;0.85;0.60;;;;;;;22.62;31.61;98458.16;5029634;28;20032;-36
2021/12/17 06:17:10;;;;;;;0.57;0.57;;;;;;;22.60;31.46;98450.34;5028173;28;20029;-33
2021/12/17 06:19:36;;;;;;;0.60;0.57;;;;;;;22.60;31.59;98445.13;5029863;28;20032;-33
2021/12/17 06:22:01;;;;;;;0.60;0.60;;;;;;;22.61;31.49;98446.00;5026244;28;20684;-36
2021/12/17 06:24:27;;;;;;;0.77;0.70;;;;;;;22.60;31.45;98445.13;5029171;28;20414;-33
2021/12/17 06:26:52;;;;;;;0.85;0.80;;;;;;;22.61;31.59;98451.22;5029691;28;20040;-34
2021/12/17 06:29:18;;;;;;;0.70;0.60;;;;;;;22.60;31.49;98434.66;5028151;28;20029;-33
2021/12/17 06:31:43;;;;;;;0.68;0.50;;;;;;;22.61;31.47;98443.38;5012654;28;20028;-30
2021/12/17 06:34:09;;;;;;;0.60;0.60;;;;;;;22.60;31.41;98439.88;5028860;28;20063;-33
2021/12/17 06:36:34;;;;;;;0.50;0.50;;;;;;;22.55;31.34;98431.25;5026406;28;20036;-31
2021/12/17 06:38:59;;;;;;;0.43;0.43;;;;;;;22.60;31.63;98444.28;5028816;28;20029;-34
2021/12/17 06:41:25;;;;;;;0.60;0.60;;;;;;;22.60;31.34;98450.34;5027990;28;20020;-32
2021/12/17 06:43:50;;;;;;;0.45;0.45;;;;;;;22.59;31.56;98438.16;5029764;28;20083;-35
2021/12/17 06:46:29;;;;;;;0.57;0.57;;;;;;;22.60;31.37;98452.09;5028670;28;20040;-30
2021/12/17 06:49:09;;;;;;;0.60;0.60;;;;;;;22.60;31.46;98463.41;5028449;28;20025;-38
2021/12/17 07:10:51;;;;;;;0.50;0.50;;;;;;;22.58;31.42;98483.47;5026523;28;20041;-35
2021/12/17 07:21:33;;;;;;;0.45;0.45;;;;;;;22.57;31.57;98487.81;5026158;28;20053;-32
2021/12/17 07:39:34;;;;;;;0.50;0.50;;;;;;;22.58;31.61;98513.06;5025766;28;20025;-30
2021/12/17 07:41:59;;;;;;;0.50;0.40;;;;;;;22.58;31.55;98512.22;5029330;28;20064;-34
2021/12/17 07:44:25;;;;;;;0.73;0.60;;;;;;;22.56;31.58;98507.00;5026220;28;20037;-30
2021/12/17 07:46:50;;;;;;;0.40;0.40;;;;;;;22.58;31.37;98512.22;5000653;28;20021;-33
2021/12/17 07:49:15;;;;;;;0.55;0.55;;;;;;;22.58;31.43;98514.84;5028382;28;20578;-33
2021/12/17 07:51:42;;;;;;;0.40;0.40;;;;;;;22.57;31.58;98513.97;5026722;28;20129;-33
2021/12/17 07:54:07;;;;;;;0.50;0.50;;;;;;;22.58;31.62;98520.06;5025669;28;20033;-36
2021/12/17 07:56:37;;;;;;;0.50;0.50;;;;;;;22.59;31.44;98516.56;5025539;28;20031;-30
2021/12/17 07:59:06;;;;;;;0.47;0.47;;;;;;;22.58;31.55;98509.59;5029199;28;20136;-32
2021/12/17 08:01:32;;;;;;;0.32;0.32;;;;;;;22.58;31.51;98510.44;5034540;28;20079;-34
2021/12/17 08:03:57;;;;;;;0.50;0.50;;;;;;;22.58;31.35;98510.44;5023489;28;20222;-35
2021/12/17 08:06:23;;;;;;;0.63;0.63;;;;;;;22.58;31.44;98509.59;5023856;28;20101;-31
2021/12/17 08:08:48;;;;;;;0.40;0.40;;;;;;;22.59;31.59;98511.31;5027330;28;20031;-29
2021/12/17 08:11:14;;;;;;;0.40;0.40;;;;;;;22.59;31.40;98511.31;5024770;28;20037;-34
2021/12/17 08:13:42;;;;;;;0.40;0.40;;;;;;;22.58;31.43;98504.38;5029873;28;20025;-35
2021/12/17 08:16:33;;;;;;;0.40;0.40;;;;;;;22.59;31.43;98508.72;5025301;28;20033;-33
2021/12/17 08:23:07;;;;;;;0.40;0.40;;;;;;;22.59;31.60;98513.94;5029286;28;20079;-31
2021/12/17 08:29:44;;;;;;;0.52;0.52;;;;;;;22.60;31.39;98525.28;5025111;28;20044;-34
2021/12/17 08:32:10;;;;;;;0.50;0.50;;;;;;;22.58;31.49;98525.28;5025796;28;20079;-28
2021/12/17 08:34:35;;;;;;;0.55;0.50;;;;;;;22.57;31.48;98524.41;5024173;28;20045;-32
2021/12/17 08:37:01;;;;;;;0.55;0.50;;;;;;;22.59;31.50;98527.00;5006025;28;20036;-30
2021/12/17 08:39:29;;;;;;;0.50;0.50;;;;;;;22.58;31.54;98520.91;5028113;28;20223;-36
2021/12/17 08:41:55;;;;;;;0.55;0.55;;;;;;;22.59;31.48;98524.41;5026870;28;20029;-36
2021/12/17 08:44:20;;;;;;;0.40;0.40;;;;;;;22.59;31.56;98527.00;5023381;28;20029;-30
2021/12/17 08:46:46;;;;;;;0.50;0.50;;;;;;;22.59;31.39;98529.63;5025736;28;20636;-30
2021/12/17 08:49:11;;;;;;;0.50;0.50;;;;;;;22.60;31.51;98525.28;5021964;28;20025;-30
2021/12/17 08:51:37;;;;;;;1.92;1.27;;;;;;;22.60;31.59;98527.88;5024343;28;20033;-33
2021/12/17 08:54:03;;;;;;;0.68;0.55;;;;;;;22.60;31.49;98527.88;5031018;28;20618;-30
2021/12/17 08:56:33;;;;;;;1.92;0.40;;;;;;;22.60;31.36;98533.09;5024723;28;20079;-33
2021/12/17 08:59:00;;;;;;;0.30;0.30;;;;;;;22.61;31.53;98547.91;5026184;28;20539;-29
2021/12/17 09:01:25;;;;;;;0.52;0.52;;;;;;;22.60;31.62;98547.03;5024383;28;20132;-33
2021/12/17 09:03:51;;;;;;;0.30;0.30;;;;;;;22.60;31.40;98541.78;5023697;28;20021;-36
2021/12/17 09:06:16;;;;;;;0.50;0.50;;;;;;;22.60;31.64;98543.56;5023518;28;20037;-29
2021/12/17 09:08:42;;;;;;;0.50;0.50;;;;;;;22.61;31.39;98542.66;5025759;28;20045;-34
2021/12/17 09:11:08;;;;;;;0.55;0.50;;;;;;;22.58;31.36;98536.59;5025825;28;20033;-34
2021/12/17 09:13:33;;;;;;;0.30;0.30;;;;;;;22.60;31.46;98549.63;5028246;28;20404;-34
2021/12/17 09:16:06;;;;;;;0.50;0.50;;;;;;;22.60;31.62;98547.03;5023352;28;20029;-35
2021/12/17 09:18:32;;;;;;;0.40;0.40;;;;;;;22.61;31.38;98545.28;5025553;28;20025;-32
2021/12/17 09:20:58;;;;;;;0.50;0.40;;;;;;;22.55;31.57;98541.88;5023990;28;20029;-30
2021/12/17 09:23:23;;;;;;;1.95;0.57;;;;;;;22.59;31.49;98547.91;5024608;28;20033;-30
2021/12/17 09:25:49;;;;;;;0.50;0.50;;;;;;;22.60;31.41;98547.03;5025908;28;20030;-32
2021/12/17 09:28:14;;;;;;;0.52;0.52;;;;;;;22.62;31.65;98545.28;5024945;28;20687;-28
2021/12/17 09:30:39;;;;;;;0.40;0.40;;;;;;;22.62;31.57;98541.78;5025186;28;20021;-34
2021/12/17 09:33:05;;;;;;;0.43;0.43;;;;;;;22.60;31.48;98549.63;5021422;28;20343;-28
2021/12/17 09:35:30;;;;;;;0.75;0.52;;;;;;;22.61;31.46;98546.13;5024651;28;20036;-34
2021/12/17 09:37:56;;;;;;;0.60;0.43;;;;;;;22.62;31.45;98547.00;5028389;28;20029;-33
2021/12/17 09:40:21;;;;;;;0.20;0.20;;;;;;;22.61;31.46;98533.06;5029734;28;20041;-31
2021/12/17 09:42:47;;;;;;;0.30;0.30;;;;;;;22.62;31.65;98533.94;5028915;28;20595;-34
2021/12/17 09:45:14;;;;;;;0.30;0.30;;;;;;;22.61;31.66;98522.63;5029629;28;20414;-32
2021/12/17 09:47:40;;;;;;;0.30;0.30;;;;;;;22.62;31.70;98524.38;5012620;28;20032;-31
2021/12/17 09:50:06;;;;;;;0.30;0.30;;;;;;;22.63;31.71;98518.25;5027672;28;20071;-35
2021/12/17 09:52:31;;;;;;;0.40;0.40;;;;;;;22.63;31.58;98523.47;5027714;28;20030;-33
2021/12/17 09:54:57;;;;;;;0.38;0.38;;;;;;;22.64;31.51;98522.59;5028414;28;20107;-28
2021/12/17 09:57:25;;;;;;;0.30;0.30;;;;;;;22.64;31.61;98519.97;5030338;28;20103;-31
2021/12/17 09:59:51;;;;;;;0.30;0.20;;;;;;;22.65;31.57;98520.84;5028933;28;20033;-35
2021/12/17 10:02:16;;;;;;;0.30;0.30;;;;;;;22.65;31.82;98526.91;4993771;28;20412;-33
2021/12/17 10:04:42;;;;;;;0.30;0.30;;;;;;;22.66;31.97;98518.22;5027075;28;20664;-31
2021/12/17 10:07:21;;;;;;;0.28;0.28;;;;;;;22.65;31.68;98516.47;5027455;28;20430;-33
2021/12/17 10:09:58;;;;;;;0.30;0.30;;;;;;;22.67;31.83;98517.31;5026877;28;20030;-33
2021/12/17 10:12:25;;;;;;;0.20;0.20;;;;;;;22.67;31.79;98519.06;5026605;28;20029;-32
2021/12/17 10:15:06;;;;;;;0.40;0.40;;;;;;;22.67;31.92;98513.84;5024899;28;20036;-32
2021/12/17 10:17:32;;;;;;;0.38;0.30;;;;;;;22.67;31.84;98501.66;5036973;28;20409;-33
2021/12/17 10:19:58;;;;;;;0.57;0.40;;;;;;;22.68;31.99;98505.97;5029532;28;20037;-32
2021/12/17 10:22:23;;;;;;;0.40;0.40;;;;;;;22.67;31.93;98498.16;5023396;28;20029;-34
2021/12/17 10:25:15;;;;;;;0.38;0.38;;;;;;;22.67;31.80;98498.16;5029973;28;20071;-35
2021/12/17 10:27:41;;;;;;;0.43;0.43;;;;;;;22.65;31.84;98495.56;5028445;28;20037;-34
2021/12/17 10:30:21;;;;;;;0.30;0.30;;;;;;;22.67;31.89;98501.66;5029723;28;20033;-28
2021/12/17 10:32:53;;;;;;;0.28;0.20;;;;;;;22.69;31.90;98501.63;5025296;28;20032;-34
2021/12/17 10:35:21;;;;;;;0.30;0.20;;;;;;;22.68;31.92;98498.16;5028208;28;20532;-30
2021/12/17 10:38:02;;;;;;;0.20;0.20;;;;;;;22.68;31.88;98495.53;5024852;28;20024;-32
2021/12/17 10:40:30;;;;;;;0.43;0.40;;;;;;;22.68;32.02;98495.53;5028687;28;20037;-33
2021/12/17 10:43:19;;;;;;;0.63;0.52;;;;;;;22.70;32.16;98490.28;5027991;28;20067;-37
2021/12/17 10:46:32;;;;;;;0.30;0.30;;;;;;;22.69;32.18;98491.19;5021331;28;20055;-33
2021/12/17 10:51:56;;;;;;;0.30;0.30;;;;;;;22.70;32.03;98495.50;5026102;28;20040;-34
2021/12/17 10:54:02;;;;;;;0.20;0.20;;;;;;;22.69;32.21;98492.03;5028953;28;20036;-33
2021/12/17 10:56:30;;;;;;;0.30;0.30;;;;;;;22.69;32.32;98502.47;5027815;28;20053;-33
2021/12/17 10:59:02;;;;;;;0.40;0.38;;;;;;;22.71;32.24;98507.69;5027820;28;20038;-33
2021/12/17 11:01:47;;;;;;;0.30;0.28;;;;;;;22.71;32.02;98505.06;5025905;28;20399;-36
2021/12/17 11:04:21;;;;;;;0.30;0.30;;;;;;;22.71;32.22;98503.34;5027676;28;20454;-33
2021/12/17 11:07:00;;;;;;;0.20;0.20;;;;;;;22.71;32.24;98507.69;5026496;28;20033;-36
2021/12/17 11:09:37;;;;;;;0.20;0.20;;;;;;;22.70;32.48;98509.44;5029661;28;20108;-31
2021/12/17 11:12:12;;;;;;;0.20;0.20;;;;;;;22.72;32.18;98506.78;5026224;28;20235;-31
2021/12/17 11:14:37;;;;;;;0.20;0.20;;;;;;;22.71;32.26;98505.94;5024732;28;20021;-33
2021/12/17 11:17:03;;;;;;;0.30;0.30;;;;;;;22.70;32.17;98504.19;5027414;28;20033;-27
2021/12/17 11:19:28;;;;;;;0.17;0.17;;;;;;;22.71;32.31;98495.50;5026016;28;20655;-33
2021/12/17 11:21:55;;;;;;;0.20;0.20;;;;;;;22.73;32.27;98498.09;5036709;28;20028;-28
2021/12/17 11:24:21;;;;;;;0.30;0.30;;;;;;;22.73;32.51;98495.47;5024650;28;20025;-32
2021/12/17 11:26:47;;;;;;;0.17;0.17;;;;;;;22.73;32.33;98489.38;5007356;28;20251;-32
2021/12/17 11:29:12;;;;;;;0.20;0.20;;;;;;;22.74;32.55;98496.31;5024557;28;20040;-31
2021/12/17 11:31:37;;;;;;;0.20;0.20;;;;;;;22.75;32.34;98498.03;5011636;28;20567;-33
2021/12/17 11:34:03;;;;;;;0.20;0.20;;;;;;;22.75;32.41;98495.44;5023438;28;20036;-35
2021/12/17 11:36:28;;;;;;;0.50;0.40;;;;;;;22.75;32.51;98496.31;5024892;28;20029;-29
2021/12/17 11:39:13;;;;;;;0.20;0.20;;;;;;;22.75;32.34;98495.44;5025573;28;20124;-36
2021/12/17 11:42:18;;;;;;;0.20;0.20;;;;;;;22.76;32.46;98502.41;5025070;28;20475;-34
2021/12/17 11:44:52;;;;;;;0.30;0.30;;;;;;;22.76;32.52;98486.72;5026281;28;20029;-37
2021/12/17 11:47:18;;;;;;;0.10;0.10;;;;;;;22.76;32.31;98481.50;5011223;28;20025;-36
2021/12/17 11:49:50;;;;;;;0.30;0.30;;;;;;;22.76;32.44;98468.44;5024550;28;20122;-30
2021/12/17 11:52:34;;;;;;;0.65;0.20;;;;;;;22.76;32.38;98466.66;5035160;28;20043;-34
2021/12/17 11:55:33;;;;;;;0.28;0.28;;;;;;;22.77;32.67;98472.78;5022907;28;20104;-31
2021/12/17 11:58:01;;;;;;;0.30;0.30;;;;;;;22.77;32.60;98473.66;5018749;28;20633;-34
2021/12/17 12:00:41;;;;;;;0.30;0.30;;;;;;;22.77;32.58;98475.38;5024916;28;20111;-33
2021/12/17 12:03:18;;;;;;;0.15;0.15;;;;;;;22.77;32.59;98473.66;5026299;28;20025;-30
2021/12/17 12:05:45;;;;;;;0.20;0.20;;;;;;;22.78;32.41;98480.59;5026826;28;20033;-33
2021/12/17 12:08:40;;;;;;;0.20;0.20;;;;;;;22.77;32.67;98468.41;5024597;28;20618;-30
2021/12/17 12:11:12;;;;;;;0.30;0.30;;;;;;;22.79;32.67;98471.00;5027062;28;20033;-33
2021/12/17 12:13:44;;;;;;;;;;;;;;;22.79;32.49;98476.22;5026392;28;20022;-34
2021/12/17 12:16:17;;;;;;;0.20;0.20;;;;;;;22.80;32.59;98472.75;5026824;28;19917;-32
2021/12/17 12:18:52;;;;;;;0.20;0.20;;;;;;;22.79;32.64;98471.00;5025019;28;20503;-37
2021/12/17 12:21:25;;;;;;;0.43;0.28;;;;;;;22.80;32.61;98470.13;5024418;28;20581;-29
2021/12/17 12:23:57;;;;;;;0.20;0.20;;;;;;;22.81;32.56;98469.22;5025295;28;20120;-33
2021/12/17 12:26:27;;;;;;;0.30;0.30;;;;;;;22.80;32.59;98473.59;5025733;28;20507;-33
2021/12/17 12:28:59;;;;;;;0.30;0.20;;;;;;;22.80;32.45;98470.13;5026651;28;20044;-34
2021/12/17 12:31:28;;;;;;;0.20;0.20;;;;;;;22.81;32.66;98466.63;5026866;28;20025;-37
2021/12/17 12:34:09;;;;;;;0.30;0.30;;;;;;;22.82;32.71;98470.97;5024320;28;20589;-34
2021/12/17 12:37:00;;;;;;;0.20;0.20;;;;;;;22.81;32.76;98464.84;5026770;28;20033;-36
2021/12/17 12:39:37;;;;;;;0.13;0.13;;;;;;;22.83;32.76;98473.56;5025458;28;20032;-36
2021/12/17 12:42:07;;;;;;;1.10;0.38;;;;;;;22.82;32.75;98481.41;5023710;28;20183;-32
2021/12/17 12:44:44;;;;;;;0.35;0.35;;;;;;;22.82;32.93;98471.84;5022575;28;20022;-31
2021/12/17 12:47:13;;;;;;;0.40;0.40;;;;;;;22.83;32.56;98483.13;5027333;28;20025;-34
2021/12/17 12:49:56;;;;;;;0.57;0.20;;;;;;;22.82;32.77;98481.41;5028240;28;20026;-37
2021/12/17 12:52:30;;;;;;;0.75;0.40;;;;;;;22.85;32.62;98481.38;5025123;28;20816;-35
2021/12/17 12:55:00;;;;;;;1.92;0.40;;;;;;;22.85;32.80;98476.16;5027471;28;20566;-31
2021/12/17 12:57:37;;;;;;;0.28;0.28;;;;;;;22.85;32.71;98460.47;5023692;28;20040;-34
2021/12/17 13:00:15;;;;;;;0.28;0.28;;;;;;;22.86;32.52;98461.31;5025445;28;20072;-34
2021/12/17 13:02:40;;;;;;;0.65;0.20;;;;;;;22.80;32.70;98441.38;5026625;28;20030;-36
2021/12/17 13:05:07;;;;;;;0.45;0.40;;;;;;;22.86;32.83;98456.97;5025980;28;20086;-34
2021/12/17 13:07:42;;;;;;;0.20;0.20;;;;;;;22.86;32.74;98456.06;5010060;28;20037;-33
2021/12/17 13:10:08;;;;;;;0.68;0.40;;;;;;;22.86;32.60;98448.25;5032767;28;20025;-32
2021/12/17 13:12:35;;;;;;;0.47;0.40;;;;;;;22.87;32.61;98450.84;5025966;28;20105;-37
2021/12/17 13:16:04;;;;;;;0.40;0.40;;;;;;;22.87;32.76;98458.69;5029788;28;20528;-30
2021/12/17 13:23:47;;;;;;;0.30;0.30;;;;;;;22.87;32.74;98466.53;5027600;28;20027;-33
2021/12/17 13:26:12;;;;;;;0.20;0.20;;;;;;;22.88;32.63;98470.84;5029160;28;20079;-36
2021/12/17 13:28:46;;;;;;;0.55;0.20;;;;;;;22.87;32.79;98465.69;5029092;28;20029;-33
2021/12/17 13:31:50;;;;;;;1.10;0.20;;;;;;;22.87;32.86;98474.38;5004415;22;20403;-61
2021/12/17 13:36:50;;;;;;;0.30;0.30;;;;;;;22.88;32.71;98485.69;5004390;28;20077;-30
2021/12/17 13:39:16;;;;;;;0.52;0.30;;;;;;;22.87;32.63;98479.59;4996347;28;20580;-30
2021/12/17 13:41:42;;;;;;;0.32;0.20;;;;;;;22.88;32.65;98470.84;5009965;28;20018;-33
2021/12/17 13:44:47;;;;;;;0.20;0.20;;;;;;;22.88;32.90;98477.84;4992776;28;20033;-28
2021/12/17 13:47:17;;;;;;;0.20;0.20;;;;;;;22.88;32.86;98473.47;4947143;28;20548;-29
2021/12/17 13:49:50;;;;;;;0.30;0.30;;;;;;;22.89;32.87;98477.84;5001814;28;20042;-28
2021/12/17 13:52:17;;;;;;;0.30;0.30;;;;;;;22.89;32.88;98469.13;4976277;28;20017;-30
2021/12/17 13:54:45;;;;;;;0.22;0.22;;;;;;;22.89;32.84;98459.53;5011213;28;20105;-27
2021/12/17 13:57:14;;;;;;;0.30;0.30;;;;;;;22.89;32.70;98464.75;5012514;28;20053;-32
2021/12/17 13:59:40;;;;;;;0.30;0.30;;;;;;;22.90;32.97;98466.47;5010796;28;20022;-31
2021/12/17 14:02:07;;;;;;;0.38;0.30;;;;;;;22.90;32.58;98463.00;5010458;28;20029;-32
2021/12/17 14:04:32;;;;;;;0.20;0.20;;;;;;;22.89;32.86;98456.03;4992944;28;20025;-31
2021/12/17 14:07:04;;;;;;;0.68;0.30;;;;;;;22.89;32.72;98456.91;5012302;28;20056;-29
2021/12/17 14:09:29;;;;;;;;;;;;;;;22.91;32.88;98454.28;5010058;28;20026;-29
2021/12/17 14:11:57;;;;;;;0.30;0.30;;;;;;;22.91;32.59;98456.91;5007521;28;19948;-28
2021/12/17 14:14:27;;;;;;;0.40;0.30;;;;;;;22.90;32.88;98453.41;4976157;28;20037;-30
2021/12/17 14:16:59;;;;;;;0.30;0.30;;;;;;;22.91;32.85;98449.06;4992706;28;20033;-33
2021/12/17 14:19:55;;;;;;;0.13;0.13;;;;;;;22.90;32.64;98458.66;5010817;28;20733;-29
2021/12/17 14:22:31;;;;;;;0.20;0.20;;;;;;;22.90;32.72;98463.88;4969058;28;20914;-28
2021/12/17 14:24:58;;;;;;;0.28;0.28;;;;;;;22.90;32.89;98461.25;5009032;28;20032;-28
2021/12/17 14:27:41;;;;;;;0.20;0.20;;;;;;;22.90;32.70;98474.31;5009871;28;20053;-28
2021/12/17 14:30:07;;;;;;;0.20;0.17;;;;;;;22.90;32.96;98479.56;5010285;28;20033;-30
2021/12/17 14:32:38;;;;;;;0.28;0.20;;;;;;;22.91;32.79;98478.66;4990257;28;20017;-29
2021/12/17 14:35:04;;;;;;;0.20;0.20;;;;;;;22.92;32.85;98462.09;4973387;28;20095;-30
2021/12/17 14:37:30;;;;;;;0.40;0.30;;;;;;;22.91;32.71;98460.38;5007803;28;20025;-32
2021/12/17 14:39:58;;;;;;;0.20;0.20;;;;;;;22.92;32.96;98469.94;5010613;28;20032;-30
2021/12/17 14:42:31;;;;;;;0.30;0.30;;;;;;;22.90;32.85;98484.78;5008429;28;20014;-28
2021/12/17 14:45:03;;;;;;;0.35;0.20;;;;;;;22.91;32.91;98477.81;4994402;28;20080;-29